createdAt,value
2022-09-26T00:01:33.895Z,9.80
2022-09-26T00:04:05.114Z,9.80
2022-09-26T00:06:32.867Z,9.70
2022-09-26T00:09:00.541Z,9.70
2022-09-26T00:11:31.232Z,9.70
2022-09-26T00:14:01.477Z,9.80
2022-09-26T00:16:29.593Z,9.90
2022-09-26T00:18:59.064Z,9.90
2022-09-26T00:21:29.489Z,9.90
2022-09-26T00:23:58.325Z,10.00
2022-09-26T00:26:28.594Z,10.00
2022-09-26T00:28:57.768Z,10.00
2022-09-26T00:31:28.800Z,10.10
2022-09-26T00:33:57.344Z,10.00
2022-09-26T00:36:36.893Z,10.10
2022-09-26T00:39:08.016Z,10.10
2022-09-26T00:41:36.943Z,10.00
2022-09-26T00:44:37.002Z,10.00
2022-09-26T00:47:07.521Z,10.00
2022-09-26T00:49:40.330Z,10.00
2022-09-26T00:52:21.300Z,10.00
2022-09-26T00:54:53.656Z,10.00
2022-09-26T00:57:33.585Z,9.90
2022-09-26T01:00:05.838Z,9.80
2022-09-26T01:02:33.589Z,9.80
2022-09-26T01:05:02.029Z,9.80
2022-09-26T01:07:30.344Z,10.00
2022-09-26T01:09:58.822Z,10.00
2022-09-26T01:12:26.602Z,10.00
2022-09-26T01:14:55.170Z,10.10
2022-09-26T01:17:24.918Z,10.00
2022-09-26T01:20:11.448Z,9.90
2022-09-26T01:22:57.976Z,9.90
2022-09-26T01:25:43.990Z,9.90
2022-09-26T01:28:37.720Z,10.00
2022-09-26T01:31:31.125Z,10.00
2022-09-26T01:34:10.715Z,10.10
2022-09-26T01:37:14.718Z,10.10
2022-09-26T01:40:03.033Z,10.10
2022-09-26T01:42:43.596Z,10.10
2022-09-26T01:45:17.863Z,10.20
2022-09-26T01:48:03.798Z,10.20
2022-09-26T01:50:51.507Z,10.20
2022-09-26T01:53:25.708Z,10.20
2022-09-26T01:56:04.863Z,10.10
2022-09-26T01:59:03.633Z,10.00
2022-09-26T02:01:37.908Z,10.00
2022-09-26T02:04:25.592Z,10.00
2022-09-26T02:07:02.451Z,10.00
2022-09-26T02:09:46.452Z,9.90
2022-09-26T02:12:21.644Z,9.90
2022-09-26T02:14:51.283Z,9.90
2022-09-26T02:17:23.336Z,9.90
2022-09-26T02:19:57.554Z,9.90
2022-09-26T02:22:29.069Z,9.90
2022-09-26T02:24:57.136Z,9.90
2022-09-26T02:27:28.241Z,9.80
2022-09-26T02:29:56.463Z,9.70
2022-09-26T02:32:34.391Z,9.70
2022-09-26T02:35:22.833Z,9.80
2022-09-26T02:37:55.532Z,9.80
2022-09-26T02:40:33.552Z,9.90
2022-09-26T02:43:22.039Z,10.00
2022-09-26T02:46:14.872Z,10.00
2022-09-26T02:48:42.513Z,10.10
2022-09-26T02:51:10.357Z,10.00
2022-09-26T02:54:12.003Z,10.00
2022-09-26T02:57:03.743Z,10.10
2022-09-26T02:59:57.611Z,10.10
2022-09-26T03:02:35.904Z,10.10
2022-09-26T03:05:21.780Z,10.10
2022-09-26T03:08:06.706Z,10.10
2022-09-26T03:10:35.468Z,10.10
2022-09-26T03:13:11.645Z,10.10
2022-09-26T03:15:42.217Z,10.00
2022-09-26T03:18:17.259Z,10.00
2022-09-26T03:20:45.380Z,10.00
2022-09-26T03:23:13.653Z,10.10
2022-09-26T03:25:42.735Z,10.10
2022-09-26T03:28:13.170Z,10.10
2022-09-26T03:30:41.555Z,10.10
2022-09-26T03:33:29.029Z,10.10
2022-09-26T03:36:00.218Z,10.00
2022-09-26T03:38:28.235Z,10.00
2022-09-26T03:41:06.147Z,10.00
2022-09-26T03:43:45.991Z,10.00
2022-09-26T03:46:15.997Z,10.10
2022-09-26T03:48:44.085Z,10.10
2022-09-26T03:51:16.332Z,10.20
2022-09-26T03:53:47.262Z,10.20
2022-09-26T03:56:19.293Z,10.20
2022-09-26T03:58:49.227Z,10.20
2022-09-26T04:01:20.904Z,10.10
2022-09-26T04:03:51.106Z,10.20
2022-09-26T04:06:20.926Z,10.30
2022-09-26T04:08:51.963Z,10.20
2022-09-26T04:11:21.990Z,10.30
2022-09-26T04:13:52.304Z,10.30
2022-09-26T04:16:23.791Z,10.20
2022-09-26T04:18:58.034Z,10.20
2022-09-26T04:21:27.602Z,10.20
2022-09-26T04:23:56.246Z,10.20
2022-09-26T04:26:24.711Z,10.10
2022-09-26T04:28:56.086Z,10.10
2022-09-26T04:31:30.699Z,10.10
2022-09-26T04:34:06.806Z,10.10
2022-09-26T04:36:35.208Z,10.20
2022-09-26T04:39:03.863Z,10.20
2022-09-26T04:41:31.829Z,10.20
2022-09-26T04:44:01.885Z,10.20
2022-09-26T04:46:31.718Z,10.30
2022-09-26T04:49:02.729Z,10.20
2022-09-26T04:51:31.844Z,10.10
2022-09-26T04:54:00.198Z,10.10
2022-09-26T04:56:29.900Z,10.10
2022-09-26T04:58:58.836Z,10.10
2022-09-26T05:01:33.016Z,10.20
2022-09-26T05:04:07.316Z,10.20
2022-09-26T05:06:35.174Z,10.10
2022-09-26T05:09:04.682Z,10.10
2022-09-26T05:11:45.343Z,10.10
2022-09-26T05:14:14.386Z,10.10
2022-09-26T05:16:42.123Z,10.20
2022-09-26T05:19:13.801Z,10.20
2022-09-26T05:21:55.119Z,10.20
2022-09-26T05:24:41.159Z,10.30
2022-09-26T05:27:09.206Z,10.20
2022-09-26T05:29:36.992Z,10.20
2022-09-26T05:32:07.318Z,10.20
2022-09-26T05:34:38.343Z,10.30
2022-09-26T05:37:07.008Z,10.30
2022-09-26T05:39:53.302Z,10.30
2022-09-26T05:42:21.696Z,10.30
2022-09-26T05:44:49.341Z,10.30
2022-09-26T05:47:17.272Z,10.30
2022-09-26T05:49:45.459Z,10.30
2022-09-26T05:52:15.853Z,10.40
2022-09-26T05:54:43.426Z,10.40
2022-09-26T05:57:29.569Z,10.40
2022-09-26T05:59:58.105Z,10.40
2022-09-26T06:02:25.836Z,10.50
2022-09-26T06:05:24.571Z,10.50
2022-09-26T06:08:04.108Z,10.60
2022-09-26T06:11:08.715Z,10.60
2022-09-26T06:13:37.290Z,10.60
2022-09-26T06:16:07.290Z,10.60
2022-09-26T06:18:39.080Z,10.60
2022-09-26T06:21:09.507Z,10.70
2022-09-26T06:23:37.632Z,10.80
2022-09-26T06:26:10.871Z,10.80
2022-09-26T06:28:40.208Z,10.90
2022-09-26T06:31:12.688Z,10.90
2022-09-26T06:34:18.905Z,11.00
2022-09-26T06:37:05.303Z,11.10
2022-09-26T06:39:37.051Z,11.20
2022-09-26T06:42:07.519Z,11.40
2022-09-26T06:44:55.536Z,11.50
2022-09-26T06:47:28.536Z,11.60
2022-09-26T06:50:14.740Z,11.70
2022-09-26T06:52:46.003Z,11.70
2022-09-26T06:55:15.310Z,11.60
2022-09-26T06:57:44.696Z,11.70
2022-09-26T07:00:15.975Z,11.70
2022-09-26T07:03:05.785Z,11.70
2022-09-26T07:05:46.600Z,11.70
2022-09-26T07:08:15.085Z,11.60
2022-09-26T07:10:42.951Z,11.60
2022-09-26T07:13:17.406Z,11.40
2022-09-26T07:15:46.812Z,11.40
2022-09-26T07:18:34.883Z,11.30
2022-09-26T07:21:16.726Z,11.40
2022-09-26T07:23:49.522Z,11.30
2022-09-26T07:26:19.995Z,11.40
2022-09-26T07:28:53.699Z,11.30
2022-09-26T07:31:23.836Z,11.30
2022-09-26T07:34:18.385Z,11.40
2022-09-26T07:36:47.609Z,11.40
2022-09-26T07:39:16.192Z,11.40
2022-09-26T07:41:46.176Z,11.50
2022-09-26T07:47:22.583Z,11.60
2022-09-26T07:50:08.937Z,11.60
2022-09-26T07:52:44.627Z,11.60
2022-09-26T07:55:25.800Z,11.70
2022-09-26T07:58:11.701Z,11.80
2022-09-26T08:00:51.010Z,11.70
2022-09-26T08:03:40.031Z,11.80
2022-09-26T08:06:20.285Z,11.90
2022-09-26T08:08:48.307Z,11.90
2022-09-26T08:11:40.311Z,11.90
2022-09-26T08:14:34.362Z,12.00
2022-09-26T08:17:40.942Z,12.00
2022-09-26T08:20:09.234Z,12.10
2022-09-26T08:22:37.717Z,11.90
2022-09-26T08:25:07.323Z,12.00
2022-09-26T08:27:43.799Z,12.00
2022-09-26T08:30:13.637Z,12.10
2022-09-26T08:32:42.083Z,12.10
2022-09-26T08:35:14.070Z,12.30
2022-09-26T08:38:15.575Z,12.30
2022-09-26T08:41:02.852Z,12.40
2022-09-26T08:43:45.327Z,12.40
2022-09-26T08:46:45.999Z,12.40
2022-09-26T08:49:59.643Z,12.50
2022-09-26T08:52:50.700Z,12.70
2022-09-26T08:55:30.419Z,12.70
2022-09-26T08:58:05.336Z,13.00
2022-09-26T09:00:38.227Z,13.20
2022-09-26T09:03:24.614Z,13.00
2022-09-26T09:06:11.435Z,12.90
2022-09-26T09:08:47.951Z,12.90
2022-09-26T09:12:04.198Z,12.90
2022-09-26T09:15:20.596Z,12.90
2022-09-26T09:18:21.177Z,12.90
2022-09-26T09:21:41.484Z,12.90
2022-09-26T09:24:23.696Z,13.10
2022-09-26T09:30:19.041Z,13.40
2022-09-26T09:33:24.041Z,13.30
2022-09-26T09:36:31.478Z,13.40
2022-09-26T09:39:40.235Z,13.40
2022-09-26T09:42:30.854Z,13.20
2022-09-26T09:45:23.176Z,13.50
2022-09-26T09:47:50.826Z,13.70
2022-09-26T09:51:04.057Z,13.50
2022-09-26T09:53:52.723Z,13.50
2022-09-26T09:56:26.335Z,13.50
2022-09-26T09:59:19.786Z,13.30
2022-09-26T10:02:30.049Z,13.30
2022-09-26T10:05:13.540Z,13.20
2022-09-26T10:07:41.780Z,13.30
2022-09-26T10:11:13.835Z,13.40
2022-09-26T10:14:33.345Z,13.30
2022-09-26T10:17:09.939Z,13.30
2022-09-26T10:20:05.224Z,13.30
2022-09-26T10:22:45.230Z,13.40
2022-09-26T10:25:25.993Z,13.50
2022-09-26T10:27:59.258Z,13.50
2022-09-26T10:30:34.646Z,13.60
2022-09-26T10:33:25.067Z,13.60
2022-09-26T10:36:05.009Z,13.80
2022-09-26T10:38:55.194Z,13.90
2022-09-26T10:41:25.799Z,13.70
2022-09-26T10:44:09.897Z,13.50
2022-09-26T10:47:19.049Z,13.50
2022-09-26T10:50:18.904Z,13.50
2022-09-26T10:53:09.528Z,13.50
2022-09-26T10:55:46.347Z,13.60
2022-09-26T10:58:22.869Z,13.70
2022-09-26T11:00:54.426Z,13.60
2022-09-26T11:03:41.514Z,13.80
2022-09-26T11:06:28.978Z,13.70
2022-09-26T11:09:06.954Z,13.80
2022-09-26T11:11:40.084Z,13.70
2022-09-26T11:14:12.257Z,13.70
2022-09-26T11:16:52.977Z,13.70
2022-09-26T11:19:54.698Z,13.70
2022-09-26T11:22:38.387Z,13.60
2022-09-26T11:25:27.864Z,13.40
2022-09-26T11:28:22.722Z,13.40
2022-09-26T11:31:27.130Z,13.50
2022-09-26T11:34:26.808Z,13.90
2022-09-26T11:37:40.606Z,14.00
2022-09-26T11:40:30.655Z,14.10
2022-09-26T11:43:11.123Z,15.20
2022-09-26T11:46:16.024Z,15.10
2022-09-26T11:49:10.765Z,14.60
2022-09-26T11:52:17.719Z,14.60
2022-09-26T11:54:57.097Z,14.20
2022-09-26T11:57:40.922Z,13.90
2022-09-26T12:00:27.565Z,13.80
2022-09-26T12:03:19.855Z,13.70
2022-09-26T12:06:20.571Z,13.70
2022-09-26T12:09:04.152Z,13.70
2022-09-26T12:11:34.824Z,13.80
2022-09-26T12:14:09.605Z,13.80
2022-09-26T12:16:59.113Z,13.80
2022-09-26T12:19:38.906Z,13.90
2022-09-26T12:22:30.944Z,14.20
2022-09-26T12:25:17.843Z,14.20
2022-09-26T12:28:05.847Z,14.20
2022-09-26T12:30:36.738Z,14.30
2022-09-26T12:33:38.345Z,14.10
2022-09-26T12:36:22.330Z,13.90
2022-09-26T12:39:07.654Z,13.50
2022-09-26T12:41:51.927Z,13.60
2022-09-26T12:44:54.453Z,13.50
2022-09-26T12:48:00.841Z,13.70
2022-09-26T12:50:35.457Z,13.60
2022-09-26T12:53:50.846Z,13.30
2022-09-26T12:56:58.650Z,13.00
2022-09-26T12:59:49.875Z,12.90
2022-09-26T13:02:50.947Z,12.60
2022-09-26T13:05:46.927Z,12.60
2022-09-26T13:08:25.631Z,12.60
2022-09-26T13:11:17.629Z,12.50
2022-09-26T13:14:14.825Z,12.40
2022-09-26T13:17:09.619Z,12.10
2022-09-26T13:19:43.368Z,11.90
2022-09-26T13:22:41.659Z,11.90
2022-09-26T13:25:20.717Z,11.80
2022-09-26T13:28:12.378Z,11.80
2022-09-26T13:31:00.132Z,11.80
2022-09-26T13:33:35.251Z,11.80
2022-09-26T13:36:04.470Z,11.60
2022-09-26T13:39:05.084Z,11.70
2022-09-26T13:41:50.562Z,11.70
2022-09-26T13:44:55.928Z,11.70
2022-09-26T13:48:03.717Z,11.60
2022-09-26T13:51:12.210Z,11.80
2022-09-26T13:53:57.721Z,11.80
2022-09-26T13:56:35.067Z,11.80
2022-09-26T13:59:27.336Z,11.90
2022-09-26T14:02:16.949Z,11.90
2022-09-26T14:04:46.450Z,12.10
2022-09-26T14:07:33.870Z,12.10
2022-09-26T14:10:02.038Z,12.10
2022-09-26T14:12:53.981Z,12.10
2022-09-26T14:15:25.630Z,12.10
2022-09-26T14:18:13.086Z,11.90
2022-09-26T14:20:55.843Z,11.80
2022-09-26T14:23:43.936Z,11.70
2022-09-26T14:26:21.204Z,11.60
2022-09-26T14:28:57.182Z,11.70
2022-09-26T14:31:24.949Z,11.70
2022-09-26T14:34:26.974Z,11.70
2022-09-26T14:36:58.173Z,11.80
2022-09-26T14:39:28.781Z,11.90
2022-09-26T14:41:59.170Z,11.80
2022-09-26T14:44:34.952Z,11.90
2022-09-26T14:47:16.296Z,11.90
2022-09-26T14:49:54.210Z,12.00
2022-09-26T14:52:25.342Z,11.90
2022-09-26T14:55:01.281Z,11.90
2022-09-26T14:57:32.145Z,11.90
2022-09-26T15:00:02.766Z,11.90
2022-09-26T15:02:41.829Z,11.80
2022-09-26T15:05:23.496Z,11.70
2022-09-26T15:07:53.707Z,11.60
2022-09-26T15:10:40.294Z,11.60
2022-09-26T15:13:10.686Z,11.60
2022-09-26T15:15:42.166Z,11.60
2022-09-26T15:18:29.839Z,11.60
2022-09-26T15:21:19.133Z,11.60
2022-09-26T15:23:52.824Z,11.60
2022-09-26T15:26:25.745Z,11.50
2022-09-26T15:28:56.758Z,11.50
2022-09-26T15:31:44.775Z,11.50
2022-09-26T15:34:44.742Z,11.40
2022-09-26T15:37:21.373Z,11.40
2022-09-26T15:39:49.616Z,11.50
2022-09-26T15:42:44.975Z,11.60
2022-09-26T15:45:26.986Z,11.70
2022-09-26T15:47:57.002Z,11.70
2022-09-26T15:50:30.258Z,11.70
2022-09-26T15:53:10.222Z,11.70
2022-09-26T15:55:40.878Z,11.70
2022-09-26T15:58:15.790Z,11.70
2022-09-26T16:00:48.556Z,11.80
2022-09-26T16:03:27.158Z,11.70
2022-09-26T16:05:55.290Z,11.70
2022-09-26T16:08:29.447Z,11.60
2022-09-26T16:11:00.180Z,11.60
2022-09-26T16:13:35.886Z,11.50
2022-09-26T16:16:14.291Z,11.50
2022-09-26T16:19:07.419Z,11.40
2022-09-26T16:21:36.664Z,11.30
2022-09-26T16:24:26.562Z,11.20
2022-09-26T16:26:56.755Z,11.10
2022-09-26T16:29:34.815Z,11.10
2022-09-26T16:32:04.500Z,11.10
2022-09-26T16:34:32.426Z,11.10
2022-09-26T16:37:00.619Z,11.00
2022-09-26T16:39:30.563Z,11.00
2022-09-26T16:42:02.898Z,10.90
2022-09-26T16:44:36.284Z,11.00
2022-09-26T16:47:26.107Z,10.90
2022-09-26T16:49:53.848Z,10.90
2022-09-26T16:52:29.311Z,10.90
2022-09-26T16:55:01.294Z,10.90
2022-09-26T16:57:32.918Z,10.90
2022-09-26T17:00:23.308Z,11.00
2022-09-26T17:02:53.826Z,11.00
2022-09-26T17:05:22.121Z,11.00
2022-09-26T17:07:50.346Z,10.90
2022-09-26T17:10:19.705Z,10.90
2022-09-26T17:12:50.780Z,10.90
2022-09-26T17:15:27.389Z,11.00
2022-09-26T17:17:59.567Z,11.00
2022-09-26T17:20:28.556Z,11.00
2022-09-26T17:22:56.540Z,11.00
2022-09-26T17:25:25.557Z,11.00
2022-09-26T17:27:58.073Z,10.90
2022-09-26T17:30:26.099Z,10.90
2022-09-26T17:32:54.734Z,10.90
2022-09-26T17:35:31.568Z,10.90
2022-09-26T17:38:00.270Z,10.90
2022-09-26T17:40:31.875Z,10.90
2022-09-26T17:43:01.734Z,10.90
2022-09-26T17:45:33.267Z,10.90
2022-09-26T17:48:05.502Z,10.90
2022-09-26T17:50:35.617Z,10.90
2022-09-26T17:53:03.687Z,10.90
2022-09-26T17:55:31.788Z,10.80
2022-09-26T17:58:00.185Z,10.80
2022-09-26T18:00:32.579Z,10.80
2022-09-26T18:03:04.326Z,10.80
2022-09-26T18:05:37.959Z,10.80
2022-09-26T18:08:16.053Z,10.80
2022-09-26T18:10:57.068Z,10.80
2022-09-26T18:13:31.615Z,10.80
2022-09-26T18:16:02.499Z,10.70
2022-09-26T18:18:34.467Z,10.60
2022-09-26T18:21:07.552Z,10.70
2022-09-26T18:23:45.849Z,10.70
2022-09-26T18:26:30.255Z,10.70
2022-09-26T18:29:10.621Z,10.70
2022-09-26T18:31:44.637Z,10.70
2022-09-26T18:34:16.422Z,10.70
2022-09-26T18:36:44.642Z,10.90
2022-09-26T18:39:12.880Z,10.90
2022-09-26T18:41:45.107Z,10.90
2022-09-26T18:44:17.923Z,10.90
2022-09-26T18:46:47.353Z,10.90
2022-09-26T18:49:16.025Z,10.90
2022-09-26T18:51:45.918Z,10.90
2022-09-26T18:54:26.564Z,10.80
2022-09-26T18:57:15.738Z,10.90
2022-09-26T18:59:45.479Z,10.90
2022-09-26T19:02:21.696Z,10.90
2022-09-26T19:04:50.383Z,11.00
2022-09-26T19:07:21.502Z,11.00
2022-09-26T19:09:50.332Z,11.00
2022-09-26T19:12:18.384Z,10.90
2022-09-26T19:14:46.207Z,10.90
2022-09-26T19:17:13.984Z,10.90
2022-09-26T19:19:41.752Z,10.90
2022-09-26T19:22:16.437Z,10.90
2022-09-26T19:24:48.766Z,10.90
2022-09-26T19:27:18.578Z,10.90
2022-09-26T19:29:55.318Z,10.90
2022-09-26T19:32:33.342Z,10.90
2022-09-26T19:35:04.627Z,10.90
2022-09-26T19:37:32.404Z,10.90
2022-09-26T19:40:00.916Z,10.80
2022-09-26T19:42:28.584Z,10.90
2022-09-26T19:44:58.376Z,10.80
2022-09-26T19:47:28.234Z,10.80
2022-09-26T19:49:55.905Z,10.80
2022-09-26T19:52:24.585Z,10.70
2022-09-26T19:54:52.317Z,10.70
2022-09-26T19:57:22.187Z,10.70
2022-09-26T19:59:50.692Z,10.70
2022-09-26T20:02:24.252Z,10.70
2022-09-26T20:04:52.135Z,10.60
2022-09-26T20:07:20.176Z,10.60
2022-09-26T20:09:47.949Z,10.60
2022-09-26T20:12:16.730Z,10.60
2022-09-26T20:14:44.498Z,10.60
2022-09-26T20:17:24.334Z,10.60
2022-09-26T20:19:58.692Z,10.40
2022-09-26T20:22:26.856Z,10.40
2022-09-26T20:24:55.864Z,10.30
2022-09-26T20:27:29.208Z,10.20
2022-09-26T20:30:15.982Z,10.20
2022-09-26T20:32:43.807Z,10.10
2022-09-26T20:35:14.696Z,10.10
2022-09-26T20:37:43.893Z,10.00
2022-09-26T20:40:22.801Z,10.00
2022-09-26T20:42:57.003Z,9.90
2022-09-26T20:45:40.931Z,9.90
2022-09-26T20:48:20.854Z,9.80
2022-09-26T20:50:49.713Z,9.70
2022-09-26T20:53:18.477Z,9.70
2022-09-26T20:55:49.038Z,9.70
2022-09-26T20:58:16.711Z,9.60
2022-09-26T21:01:13.939Z,9.50
2022-09-26T21:03:53.248Z,9.60
2022-09-26T21:06:31.835Z,9.60
2022-09-26T21:08:59.667Z,9.60
2022-09-26T21:11:27.392Z,9.60
2022-09-26T21:13:55.075Z,9.60
2022-09-26T21:16:22.785Z,9.50
2022-09-26T21:18:52.361Z,9.50
2022-09-26T21:21:26.219Z,9.50
2022-09-26T21:24:30.477Z,9.50
2022-09-26T21:26:58.182Z,9.50
2022-09-26T21:29:27.136Z,9.40
2022-09-26T21:31:58.598Z,9.40
2022-09-26T21:34:27.914Z,9.40
2022-09-26T21:36:57.132Z,9.50
2022-09-26T21:39:25.768Z,9.50
2022-09-26T21:41:58.711Z,9.50
2022-09-26T21:44:38.869Z,9.50
2022-09-26T21:47:06.606Z,9.50
2022-09-26T21:49:34.686Z,9.30
2022-09-26T21:52:12.365Z,9.30
2022-09-26T21:54:43.479Z,9.30
2022-09-26T21:57:22.278Z,9.20
2022-09-26T21:59:52.055Z,9.20
2022-09-26T22:02:20.676Z,9.30
2022-09-26T22:04:55.113Z,9.30
2022-09-26T22:07:25.953Z,9.40
2022-09-26T22:09:53.729Z,9.30
2022-09-26T22:12:21.447Z,9.10
2022-09-26T22:14:49.246Z,9.00
2022-09-26T22:17:16.933Z,9.00
2022-09-26T22:19:44.949Z,9.10
2022-09-26T22:22:12.651Z,9.10
2022-09-26T22:24:40.364Z,9.20
2022-09-26T22:27:08.026Z,9.20
2022-09-26T22:29:35.748Z,9.10
2022-09-26T22:32:04.079Z,9.20
2022-09-26T22:34:32.627Z,9.20
2022-09-26T22:37:00.415Z,9.10
2022-09-26T22:39:28.195Z,9.00
2022-09-26T22:41:55.877Z,9.10
2022-09-26T22:44:23.592Z,9.30
2022-09-26T22:46:51.246Z,9.20
2022-09-26T22:49:18.994Z,9.20
2022-09-26T22:51:46.666Z,9.30
2022-09-26T22:54:14.366Z,9.30
2022-09-26T22:56:42.302Z,9.40
2022-09-26T22:59:10.335Z,9.40
2022-09-26T23:01:39.121Z,9.40
2022-09-26T23:04:06.917Z,9.30
2022-09-26T23:06:34.574Z,9.30
2022-09-26T23:09:02.380Z,9.40
2022-09-26T23:11:31.687Z,9.40
2022-09-26T23:13:59.339Z,9.50
2022-09-26T23:16:29.725Z,9.50
2022-09-26T23:18:58.092Z,9.50
2022-09-26T23:21:27.632Z,9.30
2022-09-26T23:23:57.512Z,9.30
2022-09-26T23:26:27.677Z,9.30
2022-09-26T23:28:57.223Z,9.30
2022-09-26T23:31:26.398Z,9.30
2022-09-26T23:33:54.609Z,9.40
2022-09-26T23:36:22.530Z,9.50
2022-09-26T23:38:50.439Z,9.40
2022-09-26T23:41:18.520Z,9.30
2022-09-26T23:43:46.613Z,9.30
2022-09-26T23:46:14.642Z,9.30
2022-09-26T23:48:43.179Z,9.30
2022-09-26T23:51:11.007Z,9.30
2022-09-26T23:53:38.692Z,9.30
2022-09-26T23:56:12.505Z,9.40
2022-09-26T23:58:41.243Z,9.40
